createdAt,value
2023-04-06T00:02:00.022Z,100524.00
2023-04-06T00:04:29.600Z,100514.03
2023-04-06T00:06:59.151Z,100513.22
2023-04-06T00:09:28.729Z,100520.56
2023-04-06T00:11:58.957Z,100511.16
2023-04-06T00:14:31.094Z,100517.47
2023-04-06T00:17:00.910Z,100508.41
2023-04-06T00:19:30.439Z,100523.56
2023-04-06T00:22:00.006Z,100516.84
2023-04-06T00:24:29.602Z,100517.91
2023-04-06T00:26:59.161Z,100520.50
2023-04-06T00:29:31.420Z,100527.59
2023-04-06T00:32:01.262Z,100512.19
2023-04-06T00:34:30.949Z,100513.97
2023-04-06T00:37:00.612Z,100522.19
2023-04-06T00:39:30.203Z,100519.78
2023-04-06T00:42:01.383Z,100509.06
2023-04-06T00:44:33.789Z,100505.97
2023-04-06T00:47:03.407Z,100519.34
2023-04-06T00:49:32.988Z,100516.16
2023-04-06T00:52:02.615Z,100513.75
2023-04-06T00:54:32.853Z,100506.66
2023-04-06T00:57:02.472Z,100505.78
2023-04-06T00:59:35.677Z,100514.22
2023-04-06T01:02:05.561Z,100512.56
2023-04-06T01:04:35.740Z,100512.56
2023-04-06T01:07:05.923Z,100515.31
2023-04-06T01:09:35.844Z,100514.38
2023-04-06T01:12:08.280Z,100508.25
2023-04-06T01:14:40.502Z,100509.56
2023-04-06T01:17:10.144Z,100509.25
2023-04-06T01:19:41.406Z,100511.47
2023-04-06T01:22:10.996Z,100503.63
2023-04-06T01:24:43.117Z,100510.47
2023-04-06T01:27:12.710Z,100514.31
2023-04-06T01:29:44.080Z,100509.91
2023-04-06T01:32:13.668Z,100515.69
2023-04-06T01:34:43.234Z,100509.75
2023-04-06T01:37:12.769Z,100502.94
2023-04-06T01:39:46.488Z,100496.50
2023-04-06T01:42:16.038Z,100503.22
2023-04-06T01:44:45.641Z,100502.16
2023-04-06T01:47:15.184Z,100499.38
2023-04-06T01:49:44.690Z,100507.69
2023-04-06T01:52:15.184Z,100503.13
2023-04-06T01:54:47.295Z,100500.16
2023-04-06T01:57:16.900Z,100503.72
2023-04-06T01:59:46.560Z,100500.94
2023-04-06T02:02:16.665Z,100500.94
2023-04-06T02:04:46.363Z,100508.66
2023-04-06T02:07:15.957Z,100505.22
2023-04-06T02:09:50.289Z,100512.44
2023-04-06T02:12:19.807Z,100502.31
2023-04-06T02:14:49.372Z,100506.59
2023-04-06T02:17:18.992Z,100503.59
2023-04-06T02:19:48.555Z,100506.31
2023-04-06T02:22:18.611Z,100497.59
2023-04-06T02:24:50.864Z,100499.38
2023-04-06T02:27:20.630Z,100503.31
2023-04-06T02:29:50.220Z,100495.97
2023-04-06T02:32:20.065Z,100503.31
2023-04-06T02:34:49.624Z,100510.53
2023-04-06T02:37:19.163Z,100513.91
2023-04-06T02:39:51.295Z,100504.03
2023-04-06T02:42:20.876Z,100511.53
2023-04-06T02:44:50.511Z,100512.72
2023-04-06T02:47:20.099Z,100519.84
2023-04-06T02:49:49.648Z,100510.53
2023-04-06T02:52:19.230Z,100511.25
2023-04-06T02:54:52.287Z,100514.81
2023-04-06T02:57:21.852Z,100512.34
2023-04-06T02:59:51.396Z,100523.53
2023-04-06T03:02:20.967Z,100521.44
2023-04-06T03:04:51.386Z,100517.50
2023-04-06T03:07:21.218Z,100521.75
2023-04-06T03:09:53.402Z,100515.09
2023-04-06T03:12:22.939Z,100522.13
2023-04-06T03:14:52.535Z,100523.13
2023-04-06T03:17:22.133Z,100522.75
2023-04-06T03:19:51.833Z,100524.13
2023-04-06T03:22:21.523Z,100522.91
2023-04-06T03:24:53.653Z,100528.50
2023-04-06T03:27:23.224Z,100530.38
2023-04-06T03:29:52.803Z,100532.63
2023-04-06T03:32:22.373Z,100527.47
2023-04-06T03:34:51.907Z,100534.13
2023-04-06T03:37:21.454Z,100540.03
2023-04-06T03:39:53.605Z,100539.66
2023-04-06T03:42:23.132Z,100541.25
2023-04-06T03:44:52.704Z,100538.28
2023-04-06T03:47:22.224Z,100545.81
2023-04-06T03:49:51.790Z,100545.69
2023-04-06T03:52:24.003Z,100545.50
2023-04-06T03:54:56.309Z,100548.97
2023-04-06T03:57:25.957Z,100539.66
2023-04-06T03:59:55.542Z,100539.16
2023-04-06T04:02:25.207Z,100552.41
2023-04-06T04:04:55.131Z,100549.75
2023-04-06T04:07:24.721Z,100556.47
2023-04-06T04:09:56.838Z,100553.09
2023-04-06T04:12:26.367Z,100554.41
2023-04-06T04:14:55.902Z,100552.91
2023-04-06T04:17:25.951Z,100548.75
2023-04-06T04:19:55.562Z,100560.72
2023-04-06T04:22:25.147Z,100552.53
2023-04-06T04:24:57.337Z,100558.53
2023-04-06T04:27:26.895Z,100562.31
2023-04-06T04:29:56.464Z,100563.81
2023-04-06T04:32:28.485Z,100562.41
2023-04-06T04:34:58.094Z,100553.72
2023-04-06T04:37:27.632Z,100555.09
2023-04-06T04:39:59.807Z,100552.34
2023-04-06T04:42:29.340Z,100553.59
2023-04-06T04:44:58.869Z,100557.06
2023-04-06T04:47:28.447Z,100549.91
2023-04-06T04:49:58.116Z,100546.56
2023-04-06T04:52:27.636Z,100562.94
2023-04-06T04:54:59.754Z,100563.75
2023-04-06T04:57:29.339Z,100562.41
2023-04-06T04:59:59.159Z,100556.59
2023-04-06T05:02:28.866Z,100554.97
2023-04-06T05:04:58.444Z,100562.47
2023-04-06T05:07:27.994Z,100566.03
2023-04-06T05:10:00.164Z,100565.31
2023-04-06T05:12:30.820Z,100561.69
2023-04-06T05:15:03.295Z,100566.13
2023-04-06T05:17:32.994Z,100567.59
2023-04-06T05:20:03.350Z,100574.41
2023-04-06T05:22:33.060Z,100569.88
2023-04-06T05:25:05.472Z,100580.47
2023-04-06T05:27:35.169Z,100585.25
2023-04-06T05:30:05.068Z,100581.41
2023-04-06T05:32:34.715Z,100589.72
2023-04-06T05:35:04.624Z,100591.25
2023-04-06T05:37:34.236Z,100589.13
2023-04-06T05:40:07.675Z,100588.88
2023-04-06T05:42:40.488Z,100594.25
2023-04-06T05:45:11.894Z,100609.22
2023-04-06T05:47:41.628Z,100586.97
2023-04-06T05:50:12.051Z,100601.88
2023-04-06T05:52:44.240Z,100599.81
2023-04-06T05:55:16.459Z,100588.38
2023-04-06T05:57:46.217Z,100588.59
2023-04-06T06:00:17.842Z,100592.56
2023-04-06T06:02:47.420Z,100595.72
2023-04-06T06:05:17.275Z,100597.88
2023-04-06T06:07:46.853Z,100594.25
2023-04-06T06:10:19.230Z,100596.97
2023-04-06T06:12:48.746Z,100594.47
2023-04-06T06:15:18.338Z,100599.25
2023-04-06T06:17:48.008Z,100600.59
2023-04-06T06:20:18.022Z,100598.09
2023-04-06T06:22:47.506Z,100607.03
2023-04-06T06:25:20.080Z,100609.78
2023-04-06T06:27:49.661Z,100603.53
2023-04-06T06:30:22.367Z,100600.84
2023-04-06T06:32:53.978Z,100598.22
2023-04-06T06:35:23.613Z,100595.84
2023-04-06T06:37:53.182Z,100601.97
2023-04-06T06:40:25.563Z,100601.75
2023-04-06T06:42:55.233Z,100599.03
2023-04-06T06:45:26.571Z,100608.22
2023-04-06T06:47:56.243Z,100602.84
2023-04-06T06:50:25.874Z,100595.78
2023-04-06T06:52:55.844Z,100597.94
2023-04-06T06:55:27.996Z,100601.03
2023-04-06T06:57:57.772Z,100598.56
2023-04-06T07:00:27.591Z,100595.59
2023-04-06T07:02:57.273Z,100602.09
2023-04-06T07:05:28.697Z,100601.19
2023-04-06T07:07:59.110Z,100604.38
2023-04-06T07:10:31.436Z,100611.84
2023-04-06T07:13:01.701Z,100604.34
2023-04-06T07:15:31.287Z,100607.69
2023-04-06T07:18:01.024Z,100605.38
2023-04-06T07:20:31.003Z,100608.41
2023-04-06T07:23:00.524Z,100614.22
2023-04-06T07:25:33.239Z,100619.38
2023-04-06T07:28:02.927Z,100616.16
2023-04-06T07:30:33.905Z,100619.31
2023-04-06T07:33:04.687Z,100609.00
2023-04-06T07:35:34.320Z,100615.91
2023-04-06T07:38:04.008Z,100618.78
2023-04-06T07:40:36.402Z,100621.59
2023-04-06T07:43:06.053Z,100629.09
2023-04-06T07:45:35.774Z,100631.28
2023-04-06T07:48:05.497Z,100621.44
2023-04-06T07:50:35.107Z,100622.25
2023-04-06T07:53:04.689Z,100627.47
2023-04-06T07:55:36.870Z,100624.03
2023-04-06T07:58:06.445Z,100622.78
2023-04-06T08:00:36.326Z,100621.28
2023-04-06T08:03:06.390Z,100623.94
2023-04-06T08:05:36.015Z,100627.56
2023-04-06T08:08:05.539Z,100611.59
2023-04-06T08:10:37.998Z,100616.94
2023-04-06T08:13:07.702Z,100628.31
2023-04-06T08:15:37.245Z,100608.22
2023-04-06T08:18:07.063Z,100619.38
2023-04-06T08:20:36.717Z,100618.72
2023-04-06T08:23:06.281Z,100620.03
2023-04-06T08:25:39.369Z,100621.41
2023-04-06T08:28:10.536Z,100608.84
2023-04-06T08:30:40.288Z,100614.75
2023-04-06T08:33:09.903Z,100613.47
2023-04-06T08:35:39.539Z,100616.84
2023-04-06T08:38:09.154Z,100620.22
2023-04-06T08:40:45.443Z,100606.66
2023-04-06T08:43:17.925Z,100612.00
2023-04-06T08:45:47.569Z,100610.25
2023-04-06T08:48:18.927Z,100612.63
2023-04-06T08:50:48.835Z,100616.63
2023-04-06T08:53:21.519Z,100624.94
2023-04-06T08:55:55.413Z,100617.84
2023-04-06T08:58:37.361Z,100617.56
2023-04-06T09:01:11.644Z,100621.06
2023-04-06T09:03:43.215Z,100611.72
2023-04-06T09:06:13.727Z,100609.91
2023-04-06T09:08:44.341Z,100604.97
2023-04-06T09:11:16.834Z,100610.56
2023-04-06T09:13:51.169Z,100612.22
2023-04-06T09:16:23.017Z,100604.13
2023-04-06T09:18:53.385Z,100597.44
2023-04-06T09:21:25.494Z,100601.66
2023-04-06T09:24:03.416Z,100591.47
2023-04-06T09:26:36.791Z,100600.41
2023-04-06T09:29:07.409Z,100601.31
2023-04-06T09:31:37.033Z,100585.06
2023-04-06T09:34:07.062Z,100591.88
2023-04-06T09:36:39.589Z,100585.25
2023-04-06T09:39:09.246Z,100586.31
2023-04-06T09:41:41.591Z,100590.09
2023-04-06T09:44:12.969Z,100595.91
2023-04-06T09:46:58.861Z,100585.22
2023-04-06T09:49:31.942Z,100584.63
2023-04-06T09:52:04.413Z,100569.84
2023-04-06T09:54:35.271Z,100578.03
2023-04-06T09:57:14.666Z,100581.19
2023-04-06T09:59:51.011Z,100579.91
2023-04-06T10:02:30.589Z,100581.22
2023-04-06T10:05:06.647Z,100579.41
2023-04-06T10:07:43.175Z,100578.16
2023-04-06T10:10:19.534Z,100563.28
2023-04-06T10:12:52.566Z,100569.47
2023-04-06T10:15:23.081Z,100574.69
2023-04-06T10:17:53.025Z,100577.22
2023-04-06T10:20:29.653Z,100569.41
2023-04-06T10:23:03.532Z,100572.06
2023-04-06T10:25:33.657Z,100573.63
2023-04-06T10:28:09.656Z,100571.47
2023-04-06T10:30:45.574Z,100568.94
2023-04-06T10:33:18.636Z,100567.38
2023-04-06T10:35:48.423Z,100559.13
2023-04-06T10:38:22.185Z,100560.16
2023-04-06T10:40:52.140Z,100538.09
2023-04-06T10:43:26.399Z,100549.22
2023-04-06T10:45:59.641Z,100554.47
2023-04-06T10:48:39.849Z,100551.50
2023-04-06T10:51:13.739Z,100550.91
2023-04-06T10:53:46.410Z,100542.97
2023-04-06T10:56:17.775Z,100538.78
2023-04-06T10:58:53.895Z,100540.34
2023-04-06T11:01:24.054Z,100553.63
2023-04-06T11:03:55.068Z,100544.72
2023-04-06T11:06:26.525Z,100537.22
2023-04-06T11:08:57.442Z,100542.84
2023-04-06T11:11:28.865Z,100532.53
2023-04-06T11:14:02.778Z,100530.75
2023-04-06T11:16:34.918Z,100528.16
2023-04-06T11:19:07.141Z,100534.69
2023-04-06T11:21:40.540Z,100523.56
2023-04-06T11:24:11.573Z,100530.38
2023-04-06T11:26:42.800Z,100514.34
2023-04-06T11:29:15.984Z,100523.41
2023-04-06T11:31:46.896Z,100518.31
2023-04-06T11:34:17.770Z,100525.84
2023-04-06T11:36:49.059Z,100513.81
2023-04-06T11:39:24.326Z,100513.09
2023-04-06T11:41:54.356Z,100500.53
2023-04-06T11:44:37.625Z,100498.47
2023-04-06T11:47:08.738Z,100508.66
2023-04-06T11:49:42.630Z,100499.50
2023-04-06T11:52:19.564Z,100494.97
2023-04-06T11:54:49.772Z,100498.69
2023-04-06T11:57:19.997Z,100497.31
2023-04-06T11:59:52.219Z,100488.75
2023-04-06T12:02:22.203Z,100487.69
2023-04-06T12:04:52.211Z,100485.75
2023-04-06T12:07:21.840Z,100490.06
2023-04-06T12:09:51.382Z,100471.72
2023-04-06T12:12:20.933Z,100460.81
2023-04-06T12:14:53.190Z,100474.47
2023-04-06T12:17:22.940Z,100482.53
2023-04-06T12:19:52.554Z,100474.16
2023-04-06T12:22:22.188Z,100471.28
2023-04-06T12:24:51.756Z,100465.34
2023-04-06T12:27:21.480Z,100443.22
2023-04-06T12:29:53.864Z,100437.41
2023-04-06T12:32:23.517Z,100455.38
2023-04-06T12:34:53.084Z,100450.72
2023-04-06T12:37:22.757Z,100436.22
2023-04-06T12:39:52.291Z,100438.34
2023-04-06T12:42:25.013Z,100431.28
2023-04-06T12:44:57.120Z,100427.84
2023-04-06T12:47:27.511Z,100437.59
2023-04-06T12:49:57.869Z,100432.72
2023-04-06T12:52:28.295Z,100430.59
2023-04-06T12:54:57.845Z,100423.59
2023-04-06T12:57:27.543Z,100442.03
2023-04-06T13:00:01.417Z,100424.84
2023-04-06T13:02:31.220Z,100431.69
2023-04-06T13:05:00.865Z,100414.56
2023-04-06T13:07:30.598Z,100406.31
2023-04-06T13:10:00.237Z,100412.44
2023-04-06T13:12:29.858Z,100405.06
2023-04-06T13:15:02.137Z,100415.72
2023-04-06T13:17:31.791Z,100420.34
2023-04-06T13:20:01.900Z,100404.44
2023-04-06T13:22:31.393Z,100396.84
2023-04-06T13:25:00.920Z,100408.22
2023-04-06T13:27:34.943Z,100419.16
2023-04-06T13:30:07.825Z,100406.19
2023-04-06T13:32:37.608Z,100405.38
2023-04-06T13:35:08.393Z,100399.28
2023-04-06T13:37:38.900Z,100396.19
2023-04-06T13:40:10.268Z,100389.84
2023-04-06T13:42:41.899Z,100402.47
2023-04-06T13:45:15.061Z,100389.88
2023-04-06T13:47:44.599Z,100390.97
2023-04-06T13:50:14.807Z,100392.78
2023-04-06T13:52:44.591Z,100396.50
2023-04-06T13:55:14.536Z,100395.34
2023-04-06T13:57:45.209Z,100396.00
2023-04-06T14:00:18.507Z,100397.44
2023-04-06T14:02:48.170Z,100389.38
2023-04-06T14:05:18.773Z,100384.41
2023-04-06T14:07:48.490Z,100383.41
2023-04-06T14:10:18.148Z,100380.44
2023-04-06T14:12:48.021Z,100383.91
2023-04-06T14:15:20.405Z,100371.91
2023-04-06T14:17:50.096Z,100377.84
2023-04-06T14:20:19.904Z,100373.47
2023-04-06T14:22:50.678Z,100372.94
2023-04-06T14:25:21.202Z,100376.63
2023-04-06T14:27:50.753Z,100378.81
2023-04-06T14:30:23.346Z,100371.88
2023-04-06T14:32:52.976Z,100376.34
2023-04-06T14:35:22.520Z,100363.94
2023-04-06T14:37:52.049Z,100365.44
2023-04-06T14:40:21.853Z,100361.91
2023-04-06T14:42:52.678Z,100363.13
2023-04-06T14:45:25.326Z,100367.41
2023-04-06T14:47:54.931Z,100354.88
2023-04-06T14:50:24.495Z,100370.97
2023-04-06T14:52:54.224Z,100362.66
2023-04-06T14:55:23.774Z,100364.72
2023-04-06T14:57:55.789Z,100361.34
2023-04-06T15:00:28.238Z,100359.56
2023-04-06T15:02:57.856Z,100362.06
2023-04-06T15:05:27.622Z,100365.56
2023-04-06T15:07:57.157Z,100358.69
2023-04-06T15:10:26.778Z,100361.03
2023-04-06T15:12:56.498Z,100362.09
2023-04-06T15:15:28.659Z,100357.00
2023-04-06T15:17:58.315Z,100356.13
2023-04-06T15:20:27.947Z,100340.50
2023-04-06T15:22:57.581Z,100343.69
2023-04-06T15:25:27.327Z,100348.69
2023-04-06T15:28:00.271Z,100332.03
2023-04-06T15:30:32.647Z,100343.31
2023-04-06T15:33:04.803Z,100338.81
2023-04-06T15:35:35.318Z,100332.09
2023-04-06T15:38:06.647Z,100339.13
2023-04-06T15:40:37.353Z,100336.84
2023-04-06T15:43:07.011Z,100331.75
2023-04-06T15:45:39.551Z,100332.78
2023-04-06T15:48:09.287Z,100322.00
2023-04-06T15:50:39.566Z,100323.72
2023-04-06T15:53:09.350Z,100333.34
2023-04-06T15:55:38.937Z,100330.53
2023-04-06T15:58:08.584Z,100327.03
2023-04-06T16:00:40.713Z,100335.38
2023-04-06T16:03:10.563Z,100332.81
2023-04-06T16:05:48.996Z,100330.75
2023-04-06T16:08:28.928Z,100329.88
2023-04-06T16:10:58.487Z,100327.22
2023-04-06T16:13:28.195Z,100326.91
2023-04-06T16:16:00.680Z,100335.50
2023-04-06T16:18:31.437Z,100323.22
2023-04-06T16:21:01.732Z,100324.22
2023-04-06T16:23:31.456Z,100332.97
2023-04-06T16:26:01.269Z,100329.31
2023-04-06T16:28:31.634Z,100330.94
2023-04-06T16:31:03.780Z,100324.69
2023-04-06T16:33:33.471Z,100332.38
2023-04-06T16:36:03.064Z,100321.09
2023-04-06T16:38:35.817Z,100326.44
2023-04-06T16:41:05.595Z,100329.09
2023-04-06T16:43:35.671Z,100332.41
2023-04-06T16:46:08.324Z,100336.69
2023-04-06T16:48:37.941Z,100327.13
2023-04-06T16:51:07.937Z,100323.66
2023-04-06T16:53:37.609Z,100326.25
2023-04-06T16:58:37.934Z,100326.94
2023-04-06T17:01:10.181Z,100329.53
2023-04-06T17:03:39.884Z,100326.81
2023-04-06T17:06:10.301Z,100329.28
2023-04-06T17:08:39.849Z,100321.41
2023-04-06T17:11:09.750Z,100326.56
2023-04-06T17:13:39.372Z,100329.97
2023-04-06T17:16:12.400Z,100325.53
2023-04-06T17:18:41.939Z,100332.41
2023-04-06T17:21:14.688Z,100331.50
2023-04-06T17:23:44.699Z,100338.31
2023-04-06T17:26:14.311Z,100339.13
2023-04-06T17:28:44.064Z,100332.84
2023-04-06T17:31:16.857Z,100329.31
2023-04-06T17:33:47.776Z,100329.91
2023-04-06T17:36:17.834Z,100335.94
2023-04-06T17:38:48.381Z,100336.72
2023-04-06T17:41:18.031Z,100334.81
2023-04-06T17:43:48.407Z,100335.59
2023-04-06T17:46:21.510Z,100337.41
2023-04-06T17:48:52.076Z,100338.25
2023-04-06T17:51:21.955Z,100348.53
2023-04-06T17:53:51.667Z,100346.75
2023-04-06T17:56:21.797Z,100351.06
2023-04-06T18:01:23.608Z,100341.38
2023-04-06T18:03:53.477Z,100346.59
2023-04-06T18:06:25.599Z,100348.22
2023-04-06T18:08:55.907Z,100349.97
2023-04-06T18:11:25.967Z,100354.22
2023-04-06T18:13:55.666Z,100350.72
2023-04-06T18:16:28.613Z,100361.16
2023-04-06T18:18:58.853Z,100357.63
2023-04-06T18:21:28.694Z,100356.69
2023-04-06T18:24:01.467Z,100360.06
2023-04-06T18:26:32.661Z,100359.13
2023-04-06T18:29:02.245Z,100353.75
2023-04-06T18:34:24.335Z,100361.41
2023-04-06T18:36:53.999Z,100361.41
2023-04-06T18:39:23.626Z,100365.78
2023-04-06T18:41:53.218Z,100367.44
2023-04-06T18:44:22.785Z,100359.53
2023-04-06T18:46:55.656Z,100364.72
2023-04-06T18:49:25.608Z,100372.44
2023-04-06T18:51:57.753Z,100369.72
2023-04-06T18:54:27.339Z,100362.66
2023-04-06T18:56:57.009Z,100368.81
2023-04-06T18:59:30.355Z,100371.38
2023-04-06T19:02:02.607Z,100373.09
2023-04-06T19:04:32.816Z,100362.56
2023-04-06T19:07:02.647Z,100365.16
2023-04-06T19:09:32.180Z,100371.16
2023-04-06T19:12:01.689Z,100369.44
2023-04-06T19:14:34.001Z,100359.81
2023-04-06T19:17:06.214Z,100371.94
2023-04-06T19:19:37.887Z,100363.25
2023-04-06T19:22:07.484Z,100368.38
2023-04-06T19:24:37.032Z,100368.38
2023-04-06T19:27:06.849Z,100365.66
2023-04-06T19:29:36.400Z,100372.59
2023-04-06T19:32:11.885Z,100364.59
2023-04-06T19:34:41.965Z,100363.59
2023-04-06T19:37:11.856Z,100354.75
2023-04-06T19:39:44.219Z,100353.75
2023-04-06T19:42:15.355Z,100350.84
2023-04-06T19:44:45.144Z,100348.09
2023-04-06T19:47:17.594Z,100348.00
2023-04-06T19:49:47.490Z,100352.28
2023-04-06T19:52:17.041Z,100353.09
2023-04-06T19:54:47.144Z,100341.66
2023-04-06T19:57:16.780Z,100350.28
2023-04-06T19:59:46.367Z,100343.31
2023-04-06T20:02:18.907Z,100349.53
2023-04-06T20:04:48.751Z,100346.03
2023-04-06T20:07:18.389Z,100346.91
2023-04-06T20:09:48.005Z,100342.56
2023-04-06T20:12:17.514Z,100348.88
2023-04-06T20:14:47.100Z,100341.09
2023-04-06T20:17:19.223Z,100352.44
2023-04-06T20:19:49.798Z,100341.13
2023-04-06T20:22:19.366Z,100342.09
2023-04-06T20:24:49.075Z,100335.16
2023-04-06T20:27:19.176Z,100334.25
2023-04-06T20:29:48.807Z,100333.38
2023-04-06T20:32:22.024Z,100333.41
2023-04-06T20:34:52.820Z,100331.69
2023-04-06T20:37:22.447Z,100331.66
2023-04-06T20:39:52.379Z,100329.09
2023-04-06T20:42:24.007Z,100333.41
2023-04-06T20:44:53.924Z,100330.00
2023-04-06T20:47:27.353Z,100329.19
2023-04-06T20:49:57.231Z,100333.50
2023-04-06T20:52:27.024Z,100328.31
2023-04-06T20:54:56.623Z,100325.66
2023-04-06T20:57:27.855Z,100324.81
2023-04-06T20:59:57.486Z,100321.41
2023-04-06T21:02:29.794Z,100324.91
2023-04-06T21:04:59.398Z,100322.25
2023-04-06T21:07:29.019Z,100324.91
2023-04-06T21:09:58.552Z,100317.88
2023-04-06T21:12:28.472Z,100318.66
2023-04-06T21:14:58.090Z,100323.03
2023-04-06T21:17:30.659Z,100316.94
2023-04-06T21:20:00.196Z,100321.16
2023-04-06T21:22:29.751Z,100316.81
2023-04-06T21:24:59.311Z,100315.03
2023-04-06T21:27:28.902Z,100313.34
2023-04-06T21:29:58.455Z,100311.59
2023-04-06T21:32:30.593Z,100306.31
2023-04-06T21:35:00.164Z,100307.22
2023-04-06T21:37:29.797Z,100304.56
2023-04-06T21:39:59.541Z,100302.03
2023-04-06T21:42:29.110Z,100302.91
2023-04-06T21:44:59.152Z,100296.78
2023-04-06T21:47:32.267Z,100297.66
2023-04-06T21:50:01.855Z,100296.75
2023-04-06T21:52:31.398Z,100295.75
2023-04-06T21:55:00.947Z,100298.38
2023-04-06T21:57:30.496Z,100289.69
2023-04-06T22:00:00.137Z,100290.53
2023-04-06T22:02:34.109Z,100285.28
2023-04-06T22:05:03.955Z,100287.03
2023-04-06T22:07:33.577Z,100286.97
2023-04-06T22:10:03.407Z,100288.69
2023-04-06T22:12:32.930Z,100282.63
2023-04-06T22:15:02.775Z,100286.97
2023-04-06T22:17:34.948Z,100281.72
2023-04-06T22:20:04.577Z,100281.78
2023-04-06T22:22:34.134Z,100282.59
2023-04-06T22:25:03.768Z,100281.72
2023-04-06T22:27:33.368Z,100281.59
2023-04-06T22:30:02.911Z,100278.97
2023-04-06T22:32:35.127Z,100275.47
2023-04-06T22:35:05.094Z,100278.06
2023-04-06T22:37:34.719Z,100269.34
2023-04-06T22:40:04.278Z,100270.06
2023-04-06T22:42:33.793Z,100266.53
2023-04-06T22:45:03.346Z,100270.06
2023-04-06T22:47:35.667Z,100266.53
2023-04-06T22:50:05.279Z,100270.03
2023-04-06T22:52:34.843Z,100269.13
2023-04-06T22:55:04.465Z,100261.25
2023-04-06T22:57:34.030Z,100268.09
2023-04-06T23:00:05.792Z,100268.88
2023-04-06T23:02:38.224Z,100262.53
2023-04-06T23:05:08.507Z,100263.44
2023-04-06T23:07:38.279Z,100265.06
2023-04-06T23:10:08.791Z,100268.47
2023-04-06T23:12:38.401Z,100260.59
2023-04-06T23:15:08.937Z,100273.44
2023-04-06T23:17:41.403Z,100268.97
2023-04-06T23:20:11.600Z,100272.25
2023-04-06T23:22:41.360Z,100272.16
2023-04-06T23:25:11.969Z,100270.28
2023-04-06T23:27:41.489Z,100264.88
2023-04-06T23:30:12.219Z,100257.75
2023-04-06T23:32:44.556Z,100267.09
2023-04-06T23:35:14.209Z,100258.88
2023-04-06T23:37:43.795Z,100256.97
2023-04-06T23:40:13.963Z,100257.59
2023-04-06T23:42:43.507Z,100255.66
2023-04-06T23:45:13.511Z,100252.06
2023-04-06T23:47:46.052Z,100247.50
2023-04-06T23:50:15.700Z,100249.75
2023-04-06T23:52:45.189Z,100250.38
2023-04-06T23:55:14.707Z,100241.81
2023-04-06T23:57:44.239Z,100243.47
